EGPLBIRK

Guest
Details From EGPL - Benbecula
To BIRK - Reykjavik
Flight Number -
Tags decoded
Created
Modified
Stats Distance 582 nm / 1,078 km
Max Altitude 0 ft / 0 m
Waypoints 2
Social Downloads 0
Likes 0
Share VATSIM

Download

Looking for another format? Having issues loading an existing format? Contact us
Advertisement - Login to hide

Notes

Requested: EGPL BIRK

Route

EGPL BIRK

ID Type Via Altitude Latitude Longitude Leg Dist Tot Dist Heading (true) Name
O EGPL APT - 0 ft / 0 m 57.48117˚ -7.36300˚ - 0 nm - Benbecula
O BIRK APT - 0 ft / 0 m 64.12964˚ -21.94061˚ 582 nm 582 nm 319° / 307° Reykjavik

Altitude Profile

Advertisement - Login to hide

Weather


0- 5 10 15 20 25 30 35+ Temperature / ° C

Clouds and Precipitation
Forecast for 2017-12-13 00:00 UTC. Updated 36 minutes ago

Ground ~20,000 ft ~40,000 ft Winds

EGPL

Details ICAO EGPL (BEB)
Name Benbecula
Region United Kingdom
Timezone Europe/London (UTC+0.0)
Stats Elevation 19 ft / 6 m (AMSL)
Location 57.481171° -7.363001°
Runways 2
Magnetic Variation 4.333° W

METAR

EGPL 121920Z 28023KT 9999 FEW030 07/02 Q0991

Decode

TAF

Not found

Departure Runways

ID Width Length Bearing (true) Bearing (mag) Surface Threshold Offset Overrun Length
06 151 ft / 46 m 6,000 ft / 1,829 m 55.40° 59.73° Asphalt 384 ft / 117 m 0 ft / 0 m
17 151 ft / 46 m 4,218 ft / 1,286 m 167.10° 171.43° Asphalt 0 ft / 0 m 0 ft / 0 m
24 151 ft / 46 m 6,000 ft / 1,829 m 235.42° 239.75° Asphalt 0 ft / 0 m 0 ft / 0 m
35 151 ft / 46 m 4,218 ft / 1,286 m 347.10° 351.43° Asphalt 305 ft / 93 m 0 ft / 0 m

BIRK

Details ICAO BIRK (RKV)
Name Reykjavik
Region Iceland
Timezone Atlantic/Reykjavik (UTC+0.0)
Stats Elevation 47 ft / 14 m (AMSL)
Location 64.129644° -21.940609°
Runways 3
Magnetic Variation 13.776° W

METAR

BIRK 121900Z 09004KT 9999 FEW030 SCT055 01/M00 Q0976 R19/790126

Decode

TAF

TAF BIRK 122000Z 1221/1321 09010KT 9999 FEW030 SCT055 TX01/1222Z TNM03/1316Z

Decode

Destination Runways

ID Width Length Bearing (true) Bearing (mag) Surface Threshold Offset Overrun Length
01 148 ft / 45 m 5,129 ft / 1,563 m 355.27° 9.05° Asphalt 262 ft / 80 m 0 ft / 0 m
06 98 ft / 30 m 2,800 ft / 853 m 46.35° 60.13° Asphalt 299 ft / 91 m 0 ft / 0 m
13 148 ft / 45 m 4,023 ft / 1,226 m 116.28° 130.06° Asphalt 0 ft / 0 m 0 ft / 0 m
19 148 ft / 45 m 5,129 ft / 1,563 m 175.27° 189.05° Asphalt 0 ft / 0 m 0 ft / 0 m
24 98 ft / 30 m 2,800 ft / 853 m 226.37° 240.15° Asphalt 0 ft / 0 m 0 ft / 0 m
31 148 ft / 45 m 4,023 ft / 1,226 m 296.30° 310.08° Asphalt 213 ft / 65 m 0 ft / 0 m

Approach Navaids

Runway Type Ident Frequency Range Bearing (true) Bearing (mag) Slope Elevation
13 Localiser IRE 109.10 MHz 18 nm / 33 km 116.29° 130.07° - 38 ft / 12 m (AMSL)
19 Localiser IRK 109.90 MHz 18 nm / 33 km 175.26° 189.04° - 20 ft / 6 m (AMSL)
19 Glidescope IRK 109.90 MHz 10 nm / 19 km 175.26° 189.04° 3.50° 48 ft / 15 m (AMSL)

Popular Alternatives